27. Juni 2022

Uhrzeit Code Wetter Temp. Sichtweite Wolkendecke Wind METAR/SPECI
7:00 am
V
66 °F 30 mi 24.000 ft 340° 340° 3 kt METAR CYVR 271400Z 34003KT 30SM SCT210 BKN240 19/14 A2998 RMK CI4CS1 CONTRAILS SLP154 DENSITY ALT 400FT
6:00 am
V
61 °F 30 mi - 220° 220° 4 kt METAR CYVR 271300Z 22004KT 30SM FEW230 16/13 A2998 RMK CS1 CONTRAILS SLP154 DENSITY ALT 100FT
5:00 am
V
63 °F 20 mi - 060° 060° 2 kt METAR CYVR 271200Z 06002KT 20SM FEW240 17/12 A2997 RMK CI1 CI TR SLP151 DENSITY ALT 200FT
4:00 am
V
61 °F 20 mi - Var 000° 0 kt METAR CYVR 271100Z 00000KT 20SM FEW240 16/12 A2997 RMK CI1 CI TR SLP150 DENSITY ALT 200FT
3:00 am
V
64 °F 20 mi - 120° 120° 2 kt METAR CYVR 271000Z 12002KT 20SM SKC 18/12 A2996 RMK SLP149 DENSITY ALT 300FT
2:00 am
V
61 °F 20 mi - 330° 330° 6 kt METAR CYVR 270900Z 33006KT 20SM SKC 16/13 A2996 RMK SLP147 DENSITY ALT 100FT
1:00 am
V
63 °F 20 mi - 340° 340° 3 kt METAR CYVR 270800Z 34003KT 20SM FEW240 17/12 A2995 RMK CI1 SLP145 DENSITY ALT 200FT
12:00 am
V
63 °F 20 mi - 360° 360° 3 kt METAR CYVR 270700Z 36003KT 20SM FEW240 17/15 A2995 RMK CI1 SLP145 DENSITY ALT 200FT

26. Juni 2022

Uhrzeit Code Wetter Temp. Sichtweite Wolkendecke Wind METAR/SPECI
11:00 pm
V
66 °F 20 mi - 270° 270° 3 kt METAR CYVR 270600Z 27003KT 260V320 20SM FEW240 19/15 A2995 RMK CI2 SLP145 DENSITY ALT 500FT
10:00 pm
V
64 °F 20 mi - 300° 300° 6 kt METAR CYVR 270500Z 30006KT 20SM SCT250 18/16 A2995 RMK CI4 SLP145 DENSITY ALT 400FT
9:00 pm
V
66 °F 30 mi 25.000 ft 320° 320° 7 kt METAR CYVR 270400Z 32007KT 30SM BKN250 19/17 A2995 RMK CI6 SLP143 DENSITY ALT 500FT
8:00 pm
V
70 °F 30 mi - 300° 300° 10 kt METAR CYVR 270300Z 30010KT 30SM FEW240 21/16 A2996 RMK CI2 SLP147 DENSITY ALT 700FT
7:00 pm
V
72 °F 30 mi - 270° 270° 7 kt METAR CYVR 270200Z 27007KT 30SM FEW250 22/15 A2997 RMK CI2 SLP152 DENSITY ALT 800FT
6:00 pm
V
73 °F 30 mi - 290° 290° 10 kt METAR CYVR 270100Z 29010KT 30SM FEW250 23/16 A2999 RMK CI2 CONTRAILS SLP157 DENSITY ALT 900FT
5:00 pm
V
73 °F 30 mi - 300° 300° 10 kt METAR CYVR 270000Z 30010KT 30SM FEW250 23/16 A3001 RMK CI1 CI TR SLP164 DENSITY ALT 900FT
4:00 pm
V
75 °F 30 mi - 310° 310° 9 kt METAR CYVR 262300Z 31009KT 30SM FEW250 24/17 A3003 RMK CI1 CI TR SLP170 DENSITY ALT 900FT
3:00 pm
V
73 °F 30 mi - 300° 300° 12 kt METAR CYVR 262200Z 30012KT 30SM FEW250 23/16 A3004 RMK CI1 CI TR SLP176 DENSITY ALT 800FT
2:00 pm
V
73 °F 30 mi - 300° 300° 11 kt METAR CYVR 262100Z 30011KT 30SM FEW250 23/16 A3006 RMK CI1 CI TR SLP181 DENSITY ALT 800FT
1:00 pm
V
73 °F 30 mi - 290° 290° 11 kt METAR CYVR 262000Z 29011KT 30SM FEW250 23/17 A3008 RMK CI1 CI TR SLP189 DENSITY ALT 800FT
12:00 pm
V
73 °F 30 mi - 310° 310° 10 kt METAR CYVR 261900Z 31010KT 30SM FEW250 23/16 A3010 RMK CI1 CI TR SLP194 DENSITY ALT 700FT
11:00 am
V
72 °F 30 mi - 290° 290° 13 kt METAR CYVR 261800Z 29013KT 30SM FEW250 22/15 A3010 RMK CI1 CI TR SLP195 DENSITY ALT 600FT
10:00 am
V
70 °F 30 mi - 290° 290° 12 kt METAR CYVR 261700Z 29012KT 30SM FEW250 21/15 A3011 RMK CI1 CI TR SLP198 DENSITY ALT 500FT
9:00 am
V
68 °F 30 mi - 290° 290° 12 kt METAR CYVR 261600Z 29012KT 30SM FEW250 20/13 A3012 RMK CI1 CI TR SLP201 DENSITY ALT 400FT
8:00 am
V
66 °F 30 mi - 300° 300° 10 kt METAR CYVR 261500Z 30010KT 30SM FEW250 19/14 A3012 RMK CI1 CI TR SLP202 DENSITY ALT 300FT
7:00 am
V
64 °F 30 mi - 330° 330° 7 kt METAR CYVR 261400Z 33007KT 30SM FEW250 18/14 A3011 RMK CI1 SLP200 DENSITY ALT 100FT
6:00 am
V
61 °F 25 mi 25.000 ft 080° 080° 2 kt METAR CYVR 261300Z 08002KT 25SM BKN250 16/11 A3011 RMK CI5 SLP199
5:00 am
V
57 °F 20 mi - 230° 230° 3 kt METAR CYVR 261200Z 23003KT 20SM SCT250 14/12 A3011 RMK CI3 SLP199
4:00 am
V
59 °F 20 mi - 360° 360° 2 kt METAR CYVR 261100Z 36002KT 20SM FEW240 15/11 A3011 RMK CS1 CS TR SLP198
3:00 am
V
61 °F 20 mi - 360° 360° 4 kt METAR CYVR 261000Z 36004KT 20SM SKC 16/12 A3010 RMK SLP196
2:00 am
V
59 °F 20 mi - 360° 360° 3 kt METAR CYVR 260900Z 36003KT 20SM SKC 15/12 A3011 RMK SLP197
1:00 am
V
59 °F 20 mi - Var 000° 0 kt METAR CYVR 260800Z 00000KT 20SM SKC 15/13 A3010 RMK SLP194
12:00 am
V
63 °F 20 mi - 260° 260° 4 kt METAR CYVR 260700Z 26004KT 20SM SKC 17/14 A3009 RMK SLP192 DENSITY ALT 100FT

25. Juni 2022

Uhrzeit Code Wetter Temp. Sichtweite Wolkendecke Wind METAR/SPECI
11:00 pm
V
61 °F 20 mi - Var 000° 0 kt METAR CYVR 260600Z 00000KT 20SM FEW240 16/14 A3008 RMK CS1 CS TR SLP188
10:00 pm
V
63 °F 25 mi - 280° 280° 5 kt METAR CYVR 260500Z 28005KT 25SM FEW240 17/16 A3008 RMK CS1 SLP187 DENSITY ALT 100FT
9:00 pm
V
66 °F 25 mi 24.000 ft 310° 310° 8 kt METAR CYVR 260400Z 31008KT 25SM BKN240 19/17 A3007 RMK CS6 CONTRAILS SLP186 DENSITY ALT 300FT
8:00 pm
V
70 °F 25 mi - 310° 310° 9 kt METAR CYVR 260300Z 31009KT 25SM SCT240 21/15 A3008 RMK CS3 CONTRAILS SLP190 DENSITY ALT 600FT
7:00 pm
V
72 °F 25 mi - 310° 310° 9 kt METAR CYVR 260200Z 31009KT 25SM FEW250 22/16 A3010 RMK CS1 CONTRAILS SLP194 DENSITY ALT 600FT
6:00 pm
V
73 °F 30 mi - 300° 300° 8 kt METAR CYVR 260100Z 30008KT 30SM SCT270 23/15 A3011 RMK CS3 HALO SLP199 DENSITY ALT 700FT
5:00 pm
V
73 °F 30 mi 27.000 ft 310° 310° 10 kt METAR CYVR 260000Z 31010KT 30SM BKN270 23/16 A3012 RMK CI6 HALO SLP203 DENSITY ALT 700FT
4:00 pm
V
72 °F 30 mi - 290° 290° 11 kt METAR CYVR 252300Z 29011KT 30SM SCT270 22/16 A3015 RMK CI4 CONTRAILS SLP211 DENSITY ALT 600FT
3:00 pm
V
72 °F 30 mi - 300° 300° 10 kt METAR CYVR 252200Z 30010KT 30SM FEW270 22/15 A3016 RMK CI2 CONTRAILS SLP215 DENSITY ALT 700FT
2:00 pm
V
72 °F 30 mi - 290° 290° 10 kt METAR CYVR 252100Z 29010KT 30SM FEW270 22/15 A3018 RMK CI2 SLP221 DENSITY ALT 600FT
1:00 pm
V
70 °F 30 mi - 300° 300° 11 kt METAR CYVR 252000Z 30011KT 30SM FEW025 FEW270 21/15 A3019 RMK CU1CI2 CU TR SLP226 DENSITY ALT 500FT
12:00 pm
V
70 °F 30 mi - 300° 300° 10 kt METAR CYVR 251900Z 30010KT 30SM FEW270 21/16 A3021 RMK CI1 SLP231 DENSITY ALT 400FT
11:00 am
V
68 °F 30 mi - 290° 290° 12 kt METAR CYVR 251800Z 29012KT 30SM SCT270 20/15 A3021 RMK CI4 SLP233 DENSITY ALT 300FT
10:00 am
V
68 °F 30 mi - 290° 290° 9 kt METAR CYVR 251700Z 29009KT 30SM FEW200 20/15 A3021 RMK CI1 CONTRAILS SLP234 DENSITY ALT 300FT
9:00 am
V
66 °F 25 mi - 290° 290° 11 kt METAR CYVR 251600Z 29011KT 25SM FEW200 19/15 A3022 RMK CI1 SLP237 DENSITY ALT 100FT
8:00 am
V
64 °F 30 mi - 300° 300° 5 kt METAR CYVR 251500Z 30005KT 30SM FEW220 18/15 A3022 RMK CI1 CI TR SLP235 DENSITY ALT 100FT
Ältere Daten

Laden Sie unsere App herunter

Einfacher Zugriff auf das gesamte Flugwetter auf Ihrem Mobiltelefon und Tablet.
Mit vielen Funktionen, die auf der Website nicht verfügbar sind, wie Offline-Unterstützung und eine persönliche Flughafenliste.

Wir und Dritte verfolgen dein Internetverhalten auf unserer Website mit Cookies. Wenn du fortfährst, gehen wir davon aus, dass du mit unserer Cookie-Richtlinie einverstanden bist. Mehr erfahren